sensor_id;sensor_type;location;lat;lon;timestamp;temperature;humidity
42347;DHT22;75728;51.856;6.314;2024-02-28T00:00:38;21.10;99.90
42347;DHT22;75728;51.856;6.314;2024-02-28T00:03:04;21.10;99.90
42347;DHT22;75728;51.856;6.314;2024-02-28T00:05:30;21.10;99.90
42347;DHT22;75728;51.856;6.314;2024-02-28T00:07:56;21.10;99.90
42347;DHT22;75728;51.856;6.314;2024-02-28T00:10:22;21.10;99.90
42347;DHT22;75728;51.856;6.314;2024-02-28T00:12:47;21.10;99.90
42347;DHT22;75728;51.856;6.314;2024-02-28T00:15:13;21.10;99.90
42347;DHT22;75728;51.856;6.314;2024-02-28T00:17:39;21.10;99.90
42347;DHT22;75728;51.856;6.314;2024-02-28T00:20:09;21.10;99.90
42347;DHT22;75728;51.856;6.314;2024-02-28T00:22:37;21.10;99.90
42347;DHT22;75728;51.856;6.314;2024-02-28T00:25:03;21.00;99.90
42347;DHT22;75728;51.856;6.314;2024-02-28T00:27:34;21.10;99.90
42347;DHT22;75728;51.856;6.314;2024-02-28T00:30:00;21.00;99.90
42347;DHT22;75728;51.856;6.314;2024-02-28T00:32:26;21.00;99.90
42347;DHT22;75728;51.856;6.314;2024-02-28T00:34:51;21.00;99.90
42347;DHT22;75728;51.856;6.314;2024-02-28T00:37:17;21.00;99.90
42347;DHT22;75728;51.856;6.314;2024-02-28T00:39:44;21.00;99.90
42347;DHT22;75728;51.856;6.314;2024-02-28T00:42:10;21.00;99.90
42347;DHT22;75728;51.856;6.314;2024-02-28T00:44:35;21.00;99.90
42347;DHT22;75728;51.856;6.314;2024-02-28T00:47:01;21.00;99.90
42347;DHT22;75728;51.856;6.314;2024-02-28T00:49:27;21.00;99.90
42347;DHT22;75728;51.856;6.314;2024-02-28T00:51:52;21.00;99.90
42347;DHT22;75728;51.856;6.314;2024-02-28T00:54:18;21.00;99.90
42347;DHT22;75728;51.856;6.314;2024-02-28T00:56:44;21.00;99.90
42347;DHT22;75728;51.856;6.314;2024-02-28T00:59:09;21.00;99.90
42347;DHT22;75728;51.856;6.314;2024-02-28T01:01:38;21.00;99.90
42347;DHT22;75728;51.856;6.314;2024-02-28T01:04:03;21.00;99.90
42347;DHT22;75728;51.856;6.314;2024-02-28T01:06:29;21.00;99.90
42347;DHT22;75728;51.856;6.314;2024-02-28T01:08:55;21.00;99.90
42347;DHT22;75728;51.856;6.314;2024-02-28T01:11:20;21.00;99.90
42347;DHT22;75728;51.856;6.314;2024-02-28T01:13:46;21.00;99.90
42347;DHT22;75728;51.856;6.314;2024-02-28T01:16:11;21.00;99.90
42347;DHT22;75728;51.856;6.314;2024-02-28T01:18:37;21.00;99.90
42347;DHT22;75728;51.856;6.314;2024-02-28T01:21:03;21.00;99.90
42347;DHT22;75728;51.856;6.314;2024-02-28T01:23:28;21.00;99.90
42347;DHT22;75728;51.856;6.314;2024-02-28T01:25:54;21.00;99.90
42347;DHT22;75728;51.856;6.314;2024-02-28T01:28:19;20.90;99.90
42347;DHT22;75728;51.856;6.314;2024-02-28T01:30:45;21.00;99.90
42347;DHT22;75728;51.856;6.314;2024-02-28T01:33:11;21.00;99.90
42347;DHT22;75728;51.856;6.314;2024-02-28T01:35:38;21.00;99.90
42347;DHT22;75728;51.856;6.314;2024-02-28T01:38:03;21.00;99.90
42347;DHT22;75728;51.856;6.314;2024-02-28T01:40:29;21.00;99.90
42347;DHT22;75728;51.856;6.314;2024-02-28T01:42:54;20.90;99.90
42347;DHT22;75728;51.856;6.314;2024-02-28T01:45:20;20.90;99.90
42347;DHT22;75728;51.856;6.314;2024-02-28T01:47:46;20.90;99.90
42347;DHT22;75728;51.856;6.314;2024-02-28T01:50:11;20.90;99.90
42347;DHT22;75728;51.856;6.314;2024-02-28T01:52:38;20.90;99.90
42347;DHT22;75728;51.856;6.314;2024-02-28T01:55:05;20.90;99.90
42347;DHT22;75728;51.856;6.314;2024-02-28T01:57:32;20.90;99.90
42347;DHT22;75728;51.856;6.314;2024-02-28T01:59:58;20.90;99.90
42347;DHT22;75728;51.856;6.314;2024-02-28T02:02:23;20.90;99.90
42347;DHT22;75728;51.856;6.314;2024-02-28T02:04:49;20.90;99.90
42347;DHT22;75728;51.856;6.314;2024-02-28T02:07:18;20.90;99.90
42347;DHT22;75728;51.856;6.314;2024-02-28T02:09:44;20.90;99.90
42347;DHT22;75728;51.856;6.314;2024-02-28T02:12:11;20.90;99.90
42347;DHT22;75728;51.856;6.314;2024-02-28T02:14:36;20.90;99.90
42347;DHT22;75728;51.856;6.314;2024-02-28T02:17:02;20.90;99.90
42347;DHT22;75728;51.856;6.314;2024-02-28T02:19:28;20.80;99.90
42347;DHT22;75728;51.856;6.314;2024-02-28T02:21:57;20.90;99.90
42347;DHT22;75728;51.856;6.314;2024-02-28T02:24:23;20.90;99.90
42347;DHT22;75728;51.856;6.314;2024-02-28T02:26:49;20.90;99.90
42347;DHT22;75728;51.856;6.314;2024-02-28T02:29:17;20.90;99.90
42347;DHT22;75728;51.856;6.314;2024-02-28T02:31:43;20.90;99.90
42347;DHT22;75728;51.856;6.314;2024-02-28T02:34:08;20.80;99.90
42347;DHT22;75728;51.856;6.314;2024-02-28T02:36:34;20.90;99.90
42347;DHT22;75728;51.856;6.314;2024-02-28T02:38:59;20.80;99.90
42347;DHT22;75728;51.856;6.314;2024-02-28T02:41:25;20.80;99.90
42347;DHT22;75728;51.856;6.314;2024-02-28T02:43:51;20.80;99.90
42347;DHT22;75728;51.856;6.314;2024-02-28T02:46:16;20.80;99.90
42347;DHT22;75728;51.856;6.314;2024-02-28T02:48:42;20.80;99.90
42347;DHT22;75728;51.856;6.314;2024-02-28T02:51:08;20.80;99.90
42347;DHT22;75728;51.856;6.314;2024-02-28T02:53:33;20.80;99.90
42347;DHT22;75728;51.856;6.314;2024-02-28T02:55:59;20.80;99.90
42347;DHT22;75728;51.856;6.314;2024-02-28T02:58:24;20.80;99.90
42347;DHT22;75728;51.856;6.314;2024-02-28T03:00:50;20.80;99.90
42347;DHT22;75728;51.856;6.314;2024-02-28T03:03:15;20.80;99.90
42347;DHT22;75728;51.856;6.314;2024-02-28T03:05:41;20.80;99.90
42347;DHT22;75728;51.856;6.314;2024-02-28T03:08:07;20.80;99.90
42347;DHT22;75728;51.856;6.314;2024-02-28T03:10:32;20.80;99.90
42347;DHT22;75728;51.856;6.314;2024-02-28T03:12:58;20.80;99.90
42347;DHT22;75728;51.856;6.314;2024-02-28T03:15:24;20.80;99.90
42347;DHT22;75728;51.856;6.314;2024-02-28T03:17:49;20.80;99.90
42347;DHT22;75728;51.856;6.314;2024-02-28T03:20:15;20.80;99.90
42347;DHT22;75728;51.856;6.314;2024-02-28T03:22:40;20.80;99.90
42347;DHT22;75728;51.856;6.314;2024-02-28T03:25:07;20.80;99.90
42347;DHT22;75728;51.856;6.314;2024-02-28T03:27:32;20.70;99.90
42347;DHT22;75728;51.856;6.314;2024-02-28T03:29:58;20.80;99.90
42347;DHT22;75728;51.856;6.314;2024-02-28T03:32:24;20.80;99.90
42347;DHT22;75728;51.856;6.314;2024-02-28T03:34:49;20.80;99.90
42347;DHT22;75728;51.856;6.314;2024-02-28T03:37:15;20.70;99.90
42347;DHT22;75728;51.856;6.314;2024-02-28T03:39:40;20.80;99.90
42347;DHT22;75728;51.856;6.314;2024-02-28T03:42:06;20.70;99.90
42347;DHT22;75728;51.856;6.314;2024-02-28T03:44:32;20.70;99.90
42347;DHT22;75728;51.856;6.314;2024-02-28T03:46:57;20.70;99.90
42347;DHT22;75728;51.856;6.314;2024-02-28T03:49:23;20.70;99.90
42347;DHT22;75728;51.856;6.314;2024-02-28T03:51:49;20.70;99.90
42347;DHT22;75728;51.856;6.314;2024-02-28T03:54:15;20.70;99.90
42347;DHT22;75728;51.856;6.314;2024-02-28T03:56:40;20.70;99.90
42347;DHT22;75728;51.856;6.314;2024-02-28T03:59:06;20.80;99.90
42347;DHT22;75728;51.856;6.314;2024-02-28T04:01:31;20.70;99.90
42347;DHT22;75728;51.856;6.314;2024-02-28T04:03:57;20.70;99.90
42347;DHT22;75728;51.856;6.314;2024-02-28T04:06:23;20.70;99.90
42347;DHT22;75728;51.856;6.314;2024-02-28T04:08:49;20.70;99.90
42347;DHT22;75728;51.856;6.314;2024-02-28T04:11:14;20.70;99.90
42347;DHT22;75728;51.856;6.314;2024-02-28T04:13:40;20.70;99.90
42347;DHT22;75728;51.856;6.314;2024-02-28T04:16:07;20.70;99.90
42347;DHT22;75728;51.856;6.314;2024-02-28T04:18:33;20.70;99.90
42347;DHT22;75728;51.856;6.314;2024-02-28T04:20:58;20.70;99.90
42347;DHT22;75728;51.856;6.314;2024-02-28T04:23:24;20.70;99.90
42347;DHT22;75728;51.856;6.314;2024-02-28T04:25:50;20.70;99.90
42347;DHT22;75728;51.856;6.314;2024-02-28T04:28:15;20.60;99.90
42347;DHT22;75728;51.856;6.314;2024-02-28T04:30:41;20.60;99.90
42347;DHT22;75728;51.856;6.314;2024-02-28T04:33:07;20.60;99.90
42347;DHT22;75728;51.856;6.314;2024-02-28T04:35:32;20.60;99.90
42347;DHT22;75728;51.856;6.314;2024-02-28T04:37:58;20.70;99.90
42347;DHT22;75728;51.856;6.314;2024-02-28T04:40:24;20.60;99.90
42347;DHT22;75728;51.856;6.314;2024-02-28T04:42:49;20.70;99.90
42347;DHT22;75728;51.856;6.314;2024-02-28T04:45:15;20.60;99.90
42347;DHT22;75728;51.856;6.314;2024-02-28T04:47:41;20.60;99.90
42347;DHT22;75728;51.856;6.314;2024-02-28T04:50:06;20.60;99.90
42347;DHT22;75728;51.856;6.314;2024-02-28T04:52:33;20.60;99.90
42347;DHT22;75728;51.856;6.314;2024-02-28T04:54:58;20.60;99.90
42347;DHT22;75728;51.856;6.314;2024-02-28T04:57:24;20.60;99.90
42347;DHT22;75728;51.856;6.314;2024-02-28T04:59:50;20.60;99.90
42347;DHT22;75728;51.856;6.314;2024-02-28T05:02:15;20.60;99.90
42347;DHT22;75728;51.856;6.314;2024-02-28T05:04:42;20.50;99.90
42347;DHT22;75728;51.856;6.314;2024-02-28T05:07:08;20.50;99.90
42347;DHT22;75728;51.856;6.314;2024-02-28T05:09:34;20.50;99.90
42347;DHT22;75728;51.856;6.314;2024-02-28T05:11:59;20.50;99.90
42347;DHT22;75728;51.856;6.314;2024-02-28T05:14:25;20.50;99.90
42347;DHT22;75728;51.856;6.314;2024-02-28T05:16:51;20.50;99.90
42347;DHT22;75728;51.856;6.314;2024-02-28T05:19:16;20.50;99.90
42347;DHT22;75728;51.856;6.314;2024-02-28T05:21:44;20.50;99.90
42347;DHT22;75728;51.856;6.314;2024-02-28T05:24:10;20.50;99.90
42347;DHT22;75728;51.856;6.314;2024-02-28T05:26:36;20.50;99.90
42347;DHT22;75728;51.856;6.314;2024-02-28T05:29:02;20.50;99.90
42347;DHT22;75728;51.856;6.314;2024-02-28T05:31:29;20.50;99.90
42347;DHT22;75728;51.856;6.314;2024-02-28T05:33:57;20.50;99.90
42347;DHT22;75728;51.856;6.314;2024-02-28T05:36:24;20.40;99.90
42347;DHT22;75728;51.856;6.314;2024-02-28T05:38:51;20.50;99.90
42347;DHT22;75728;51.856;6.314;2024-02-28T05:41:17;20.50;99.90
42347;DHT22;75728;51.856;6.314;2024-02-28T05:43:43;20.40;99.90
42347;DHT22;75728;51.856;6.314;2024-02-28T05:46:09;20.50;99.90
42347;DHT22;75728;51.856;6.314;2024-02-28T05:48:35;20.40;99.90
42347;DHT22;75728;51.856;6.314;2024-02-28T05:51:01;20.40;99.90
42347;DHT22;75728;51.856;6.314;2024-02-28T05:53:27;20.40;99.90
42347;DHT22;75728;51.856;6.314;2024-02-28T05:55:55;20.40;99.90
42347;DHT22;75728;51.856;6.314;2024-02-28T05:58:22;20.40;99.90
42347;DHT22;75728;51.856;6.314;2024-02-28T06:00:48;20.40;99.90
42347;DHT22;75728;51.856;6.314;2024-02-28T06:03:14;20.40;99.90
42347;DHT22;75728;51.856;6.314;2024-02-28T06:05:40;20.40;99.90
42347;DHT22;75728;51.856;6.314;2024-02-28T06:08:06;20.40;99.90
42347;DHT22;75728;51.856;6.314;2024-02-28T06:10:31;20.40;99.90
42347;DHT22;75728;51.856;6.314;2024-02-28T06:12:57;20.40;99.90
42347;DHT22;75728;51.856;6.314;2024-02-28T06:15:23;20.40;99.90
42347;DHT22;75728;51.856;6.314;2024-02-28T06:17:48;20.40;99.90
42347;DHT22;75728;51.856;6.314;2024-02-28T06:20:14;20.40;99.90
42347;DHT22;75728;51.856;6.314;2024-02-28T06:22:40;20.40;99.90
42347;DHT22;75728;51.856;6.314;2024-02-28T06:25:06;20.30;99.90
42347;DHT22;75728;51.856;6.314;2024-02-28T06:27:38;20.40;99.90
42347;DHT22;75728;51.856;6.314;2024-02-28T06:30:05;20.40;99.90
42347;DHT22;75728;51.856;6.314;2024-02-28T06:32:31;20.40;99.90
42347;DHT22;75728;51.856;6.314;2024-02-28T06:34:57;20.40;99.90
42347;DHT22;75728;51.856;6.314;2024-02-28T06:37:22;20.30;99.90
42347;DHT22;75728;51.856;6.314;2024-02-28T06:39:48;20.30;99.90
42347;DHT22;75728;51.856;6.314;2024-02-28T06:42:13;20.30;99.90
42347;DHT22;75728;51.856;6.314;2024-02-28T06:44:39;20.30;99.90
42347;DHT22;75728;51.856;6.314;2024-02-28T06:47:05;20.30;99.90
42347;DHT22;75728;51.856;6.314;2024-02-28T06:49:30;20.30;99.90
42347;DHT22;75728;51.856;6.314;2024-02-28T06:51:56;20.30;99.90
42347;DHT22;75728;51.856;6.314;2024-02-28T06:54:24;20.30;99.90
42347;DHT22;75728;51.856;6.314;2024-02-28T06:56:50;20.30;99.90
42347;DHT22;75728;51.856;6.314;2024-02-28T06:59:15;20.30;99.90
42347;DHT22;75728;51.856;6.314;2024-02-28T07:01:41;20.30;99.90
42347;DHT22;75728;51.856;6.314;2024-02-28T07:04:07;20.30;99.90
42347;DHT22;75728;51.856;6.314;2024-02-28T07:06:32;20.30;99.90
42347;DHT22;75728;51.856;6.314;2024-02-28T07:08:58;20.30;99.90
42347;DHT22;75728;51.856;6.314;2024-02-28T07:11:23;20.30;99.90
42347;DHT22;75728;51.856;6.314;2024-02-28T07:13:49;20.30;99.90
42347;DHT22;75728;51.856;6.314;2024-02-28T07:16:14;20.30;99.90
42347;DHT22;75728;51.856;6.314;2024-02-28T07:18:40;20.30;99.90
42347;DHT22;75728;51.856;6.314;2024-02-28T07:21:06;20.20;99.90
42347;DHT22;75728;51.856;6.314;2024-02-28T07:23:32;20.20;99.90
42347;DHT22;75728;51.856;6.314;2024-02-28T07:25:58;20.30;99.90
42347;DHT22;75728;51.856;6.314;2024-02-28T07:28:23;20.30;99.90
42347;DHT22;75728;51.856;6.314;2024-02-28T07:30:49;20.30;99.90
42347;DHT22;75728;51.856;6.314;2024-02-28T07:33:14;20.30;99.90
42347;DHT22;75728;51.856;6.314;2024-02-28T07:35:47;19.70;94.50
42347;DHT22;75728;51.856;6.314;2024-02-28T07:38:13;19.50;94.50
42347;DHT22;75728;51.856;6.314;2024-02-28T07:40:38;19.30;94.50
42347;DHT22;75728;51.856;6.314;2024-02-28T07:43:04;19.10;94.70
42347;DHT22;75728;51.856;6.314;2024-02-28T07:45:29;19.00;94.70
42347;DHT22;75728;51.856;6.314;2024-02-28T07:47:55;18.90;94.70
42347;DHT22;75728;51.856;6.314;2024-02-28T07:50:21;18.80;94.80
42347;DHT22;75728;51.856;6.314;2024-02-28T07:52:46;18.80;94.80
42347;DHT22;75728;51.856;6.314;2024-02-28T07:55:12;18.80;94.90
42347;DHT22;75728;51.856;6.314;2024-02-28T07:57:38;19.00;99.30
42347;DHT22;75728;51.856;6.314;2024-02-28T08:00:04;19.50;99.30
42347;DHT22;75728;51.856;6.314;2024-02-28T08:02:30;19.80;99.30
42347;DHT22;75728;51.856;6.314;2024-02-28T08:04:56;20.00;99.60
42347;DHT22;75728;51.856;6.314;2024-02-28T08:07:22;20.10;98.90
42347;DHT22;75728;51.856;6.314;2024-02-28T08:09:47;20.10;99.20
42347;DHT22;75728;51.856;6.314;2024-02-28T08:12:13;20.20;99.50
42347;DHT22;75728;51.856;6.314;2024-02-28T08:14:38;20.20;99.50
42347;DHT22;75728;51.856;6.314;2024-02-28T08:17:04;19.60;95.10
42347;DHT22;75728;51.856;6.314;2024-02-28T08:19:30;19.30;95.30
42347;DHT22;75728;51.856;6.314;2024-02-28T08:21:55;19.20;95.50
42347;DHT22;75728;51.856;6.314;2024-02-28T08:24:21;19.10;95.30
42347;DHT22;75728;51.856;6.314;2024-02-28T08:26:46;19.10;95.50
42347;DHT22;75728;51.856;6.314;2024-02-28T08:29:12;19.00;95.40
42347;DHT22;75728;51.856;6.314;2024-02-28T08:31:43;19.00;95.50
42347;DHT22;75728;51.856;6.314;2024-02-28T08:34:09;19.00;95.60
42347;DHT22;75728;51.856;6.314;2024-02-28T08:36:35;19.00;95.50
42347;DHT22;75728;51.856;6.314;2024-02-28T08:39:01;18.90;95.40
42347;DHT22;75728;51.856;6.314;2024-02-28T08:41:27;18.90;95.70
42347;DHT22;75728;51.856;6.314;2024-02-28T08:43:52;18.90;95.70
42347;DHT22;75728;51.856;6.314;2024-02-28T08:46:18;18.90;95.80
42347;DHT22;75728;51.856;6.314;2024-02-28T08:48:43;18.90;95.70
42347;DHT22;75728;51.856;6.314;2024-02-28T08:51:09;18.90;95.80
42347;DHT22;75728;51.856;6.314;2024-02-28T08:53:35;18.90;95.80
42347;DHT22;75728;51.856;6.314;2024-02-28T08:56:00;18.90;95.70
42347;DHT22;75728;51.856;6.314;2024-02-28T08:58:26;18.90;95.70
42347;DHT22;75728;51.856;6.314;2024-02-28T09:00:51;18.90;95.80
42347;DHT22;75728;51.856;6.314;2024-02-28T09:03:17;18.90;96.10
42347;DHT22;75728;51.856;6.314;2024-02-28T09:05:43;18.90;96.00
42347;DHT22;75728;51.856;6.314;2024-02-28T09:08:08;18.90;96.00
42347;DHT22;75728;51.856;6.314;2024-02-28T09:10:34;18.90;96.00
42347;DHT22;75728;51.856;6.314;2024-02-28T09:13:00;18.90;96.00
42347;DHT22;75728;51.856;6.314;2024-02-28T09:15:25;18.90;96.30
42347;DHT22;75728;51.856;6.314;2024-02-28T09:17:51;18.90;96.40
42347;DHT22;75728;51.856;6.314;2024-02-28T09:20:17;18.90;96.20
42347;DHT22;75728;51.856;6.314;2024-02-28T09:22:43;18.90;96.50
42347;DHT22;75728;51.856;6.314;2024-02-28T09:25:09;18.90;96.40
42347;DHT22;75728;51.856;6.314;2024-02-28T09:27:37;18.90;96.30
42347;DHT22;75728;51.856;6.314;2024-02-28T09:30:03;18.90;96.50
42347;DHT22;75728;51.856;6.314;2024-02-28T09:32:29;18.90;96.70
42347;DHT22;75728;51.856;6.314;2024-02-28T09:34:55;18.90;96.80
42347;DHT22;75728;51.856;6.314;2024-02-28T09:37:20;18.90;96.70
42347;DHT22;75728;51.856;6.314;2024-02-28T09:39:47;18.90;96.90
42347;DHT22;75728;51.856;6.314;2024-02-28T09:42:14;18.90;97.00
42347;DHT22;75728;51.856;6.314;2024-02-28T09:44:40;18.90;97.10
42347;DHT22;75728;51.856;6.314;2024-02-28T09:47:08;19.00;97.20
42347;DHT22;75728;51.856;6.314;2024-02-28T09:49:34;19.00;96.90
42347;DHT22;75728;51.856;6.314;2024-02-28T09:52:03;18.90;97.00
42347;DHT22;75728;51.856;6.314;2024-02-28T09:54:29;19.00;96.80
42347;DHT22;75728;51.856;6.314;2024-02-28T09:56:55;18.90;96.90
42347;DHT22;75728;51.856;6.314;2024-02-28T09:59:21;19.00;97.10
42347;DHT22;75728;51.856;6.314;2024-02-28T10:01:55;19.00;97.00
42347;DHT22;75728;51.856;6.314;2024-02-28T10:04:21;19.00;96.90
42347;DHT22;75728;51.856;6.314;2024-02-28T10:06:47;19.00;97.10
42347;DHT22;75728;51.856;6.314;2024-02-28T10:09:15;19.00;97.00
42347;DHT22;75728;51.856;6.314;2024-02-28T10:11:41;19.00;97.30
42347;DHT22;75728;51.856;6.314;2024-02-28T10:14:09;19.00;97.40
42347;DHT22;75728;51.856;6.314;2024-02-28T10:16:35;19.00;97.60
42347;DHT22;75728;51.856;6.314;2024-02-28T10:19:00;19.00;97.30
42347;DHT22;75728;51.856;6.314;2024-02-28T10:21:26;19.00;97.60
42347;DHT22;75728;51.856;6.314;2024-02-28T10:23:52;19.00;97.10
42347;DHT22;75728;51.856;6.314;2024-02-28T10:26:17;19.00;97.40
42347;DHT22;75728;51.856;6.314;2024-02-28T10:28:43;19.00;97.50
42347;DHT22;75728;51.856;6.314;2024-02-28T10:31:12;19.00;97.60
42347;DHT22;75728;51.856;6.314;2024-02-28T10:33:37;19.00;97.60
42347;DHT22;75728;51.856;6.314;2024-02-28T10:36:04;19.00;97.90
42347;DHT22;75728;51.856;6.314;2024-02-28T10:38:31;19.00;97.90
42347;DHT22;75728;51.856;6.314;2024-02-28T10:41:02;19.00;97.60
42347;DHT22;75728;51.856;6.314;2024-02-28T10:43:29;19.00;97.90
42347;DHT22;75728;51.856;6.314;2024-02-28T10:45:57;19.00;97.70
42347;DHT22;75728;51.856;6.314;2024-02-28T10:48:27;19.00;97.90
42347;DHT22;75728;51.856;6.314;2024-02-28T10:50:53;19.00;97.80
42347;DHT22;75728;51.856;6.314;2024-02-28T10:53:42;19.00;97.70
42347;DHT22;75728;51.856;6.314;2024-02-28T10:56:11;19.00;98.00
42347;DHT22;75728;51.856;6.314;2024-02-28T10:58:39;19.00;97.80
42347;DHT22;75728;51.856;6.314;2024-02-28T11:01:08;19.00;98.30
42347;DHT22;75728;51.856;6.314;2024-02-28T11:03:34;19.00;98.30
42347;DHT22;75728;51.856;6.314;2024-02-28T11:06:00;19.00;98.10
42347;DHT22;75728;51.856;6.314;2024-02-28T11:08:27;19.00;98.00
42347;DHT22;75728;51.856;6.314;2024-02-28T11:11:03;19.00;98.00
42347;DHT22;75728;51.856;6.314;2024-02-28T11:13:30;19.00;98.20
42347;DHT22;75728;51.856;6.314;2024-02-28T11:16:11;19.00;98.00
42347;DHT22;75728;51.856;6.314;2024-02-28T11:18:48;19.00;98.00
42347;DHT22;75728;51.856;6.314;2024-02-28T11:21:17;19.00;98.10
42347;DHT22;75728;51.856;6.314;2024-02-28T11:23:46;19.00;98.00
42347;DHT22;75728;51.856;6.314;2024-02-28T11:26:15;19.10;98.10
42347;DHT22;75728;51.856;6.314;2024-02-28T11:28:41;19.00;98.30
42347;DHT22;75728;51.856;6.314;2024-02-28T11:31:07;19.00;98.30
42347;DHT22;75728;51.856;6.314;2024-02-28T11:33:32;19.10;98.10
42347;DHT22;75728;51.856;6.314;2024-02-28T11:36:01;19.10;97.90
42347;DHT22;75728;51.856;6.314;2024-02-28T11:38:29;19.00;98.30
42347;DHT22;75728;51.856;6.314;2024-02-28T11:40:54;19.10;98.40
42347;DHT22;75728;51.856;6.314;2024-02-28T11:43:23;19.10;98.40
42347;DHT22;75728;51.856;6.314;2024-02-28T11:45:49;19.10;98.40
42347;DHT22;75728;51.856;6.314;2024-02-28T11:48:15;19.10;98.30
42347;DHT22;75728;51.856;6.314;2024-02-28T11:50:41;19.10;98.30
42347;DHT22;75728;51.856;6.314;2024-02-28T11:53:07;19.10;98.20
42347;DHT22;75728;51.856;6.314;2024-02-28T11:55:33;19.10;98.50
42347;DHT22;75728;51.856;6.314;2024-02-28T11:57:59;19.10;98.50
42347;DHT22;75728;51.856;6.314;2024-02-28T12:00:25;19.10;98.60
42347;DHT22;75728;51.856;6.314;2024-02-28T12:02:51;19.10;98.50
42347;DHT22;75728;51.856;6.314;2024-02-28T12:05:19;19.10;98.60
42347;DHT22;75728;51.856;6.314;2024-02-28T12:07:45;19.10;98.30
42347;DHT22;75728;51.856;6.314;2024-02-28T12:10:11;19.10;98.20
42347;DHT22;75728;51.856;6.314;2024-02-28T12:12:38;19.10;98.20
42347;DHT22;75728;51.856;6.314;2024-02-28T12:15:05;19.20;98.60
42347;DHT22;75728;51.856;6.314;2024-02-28T12:17:31;19.20;98.30
42347;DHT22;75728;51.856;6.314;2024-02-28T12:20:00;19.20;98.60
42347;DHT22;75728;51.856;6.314;2024-02-28T12:22:26;19.20;98.70
42347;DHT22;75728;51.856;6.314;2024-02-28T12:24:52;19.20;98.70
42347;DHT22;75728;51.856;6.314;2024-02-28T12:27:17;19.10;98.50
42347;DHT22;75728;51.856;6.314;2024-02-28T12:29:43;19.20;98.50
42347;DHT22;75728;51.856;6.314;2024-02-28T12:32:09;19.20;98.30
42347;DHT22;75728;51.856;6.314;2024-02-28T12:34:34;19.20;98.30
42347;DHT22;75728;51.856;6.314;2024-02-28T12:37:01;19.20;98.50
42347;DHT22;75728;51.856;6.314;2024-02-28T12:39:27;19.20;98.60
42347;DHT22;75728;51.856;6.314;2024-02-28T12:41:52;19.20;98.40
42347;DHT22;75728;51.856;6.314;2024-02-28T12:44:18;19.20;98.30
42347;DHT22;75728;51.856;6.314;2024-02-28T12:46:44;19.20;98.60
42347;DHT22;75728;51.856;6.314;2024-02-28T12:49:09;19.10;98.50
42347;DHT22;75728;51.856;6.314;2024-02-28T12:51:45;19.20;98.20
42347;DHT22;75728;51.856;6.314;2024-02-28T12:54:12;19.20;98.30
42347;DHT22;75728;51.856;6.314;2024-02-28T12:56:40;19.20;98.40
42347;DHT22;75728;51.856;6.314;2024-02-28T12:59:08;19.20;98.20
42347;DHT22;75728;51.856;6.314;2024-02-28T13:01:34;19.20;98.20
42347;DHT22;75728;51.856;6.314;2024-02-28T13:04:00;19.20;98.30
42347;DHT22;75728;51.856;6.314;2024-02-28T13:06:25;19.50;98.50
42347;DHT22;75728;51.856;6.314;2024-02-28T13:08:51;19.30;98.50
42347;DHT22;75728;51.856;6.314;2024-02-28T13:11:21;19.20;98.30
42347;DHT22;75728;51.856;6.314;2024-02-28T13:13:48;19.20;98.50
42347;DHT22;75728;51.856;6.314;2024-02-28T13:16:17;19.10;98.00
42347;DHT22;75728;51.856;6.314;2024-02-28T13:18:44;19.10;98.10
42347;DHT22;75728;51.856;6.314;2024-02-28T13:21:10;19.10;98.00
42347;DHT22;75728;51.856;6.314;2024-02-28T13:23:36;19.10;98.30
42347;DHT22;75728;51.856;6.314;2024-02-28T13:26:06;19.10;98.50
42347;DHT22;75728;51.856;6.314;2024-02-28T13:28:33;19.10;98.20
42347;DHT22;75728;51.856;6.314;2024-02-28T13:30:59;19.10;98.40
42347;DHT22;75728;51.856;6.314;2024-02-28T13:33:26;19.10;98.20
42347;DHT22;75728;51.856;6.314;2024-02-28T13:35:52;19.10;98.10
42347;DHT22;75728;51.856;6.314;2024-02-28T13:38:19;19.10;98.00
42347;DHT22;75728;51.856;6.314;2024-02-28T13:40:46;19.10;98.10
42347;DHT22;75728;51.856;6.314;2024-02-28T13:43:12;19.10;98.10
42347;DHT22;75728;51.856;6.314;2024-02-28T13:45:48;19.10;98.00
42347;DHT22;75728;51.856;6.314;2024-02-28T13:48:20;19.10;97.90
42347;DHT22;75728;51.856;6.314;2024-02-28T13:50:52;19.10;97.90
42347;DHT22;75728;51.856;6.314;2024-02-28T13:53:18;19.10;98.00
42347;DHT22;75728;51.856;6.314;2024-02-28T13:55:44;19.10;98.00
42347;DHT22;75728;51.856;6.314;2024-02-28T13:58:14;19.10;98.20
42347;DHT22;75728;51.856;6.314;2024-02-28T14:00:43;19.10;98.20
42347;DHT22;75728;51.856;6.314;2024-02-28T14:03:12;19.10;98.20
42347;DHT22;75728;51.856;6.314;2024-02-28T14:05:38;19.10;98.00
42347;DHT22;75728;51.856;6.314;2024-02-28T14:08:04;19.10;98.30
42347;DHT22;75728;51.856;6.314;2024-02-28T14:10:30;19.10;98.30
42347;DHT22;75728;51.856;6.314;2024-02-28T14:12:56;19.10;98.10
42347;DHT22;75728;51.856;6.314;2024-02-28T14:15:22;19.10;98.20
42347;DHT22;75728;51.856;6.314;2024-02-28T14:17:56;19.10;98.20
42347;DHT22;75728;51.856;6.314;2024-02-28T14:20:22;19.20;98.30
42347;DHT22;75728;51.856;6.314;2024-02-28T14:22:48;19.20;98.20
42347;DHT22;75728;51.856;6.314;2024-02-28T14:25:16;19.20;98.20
42347;DHT22;75728;51.856;6.314;2024-02-28T14:27:44;19.20;98.10
42347;DHT22;75728;51.856;6.314;2024-02-28T14:30:10;19.20;98.20
42347;DHT22;75728;51.856;6.314;2024-02-28T14:32:37;19.20;98.30
42347;DHT22;75728;51.856;6.314;2024-02-28T14:35:06;19.20;98.10
42347;DHT22;75728;51.856;6.314;2024-02-28T14:37:35;19.20;98.30
42347;DHT22;75728;51.856;6.314;2024-02-28T14:40:05;19.10;98.30
42347;DHT22;75728;51.856;6.314;2024-02-28T14:42:44;19.50;99.30
42347;DHT22;75728;51.856;6.314;2024-02-28T14:45:13;19.60;99.90
42347;DHT22;75728;51.856;6.314;2024-02-28T14:47:43;20.20;99.90
42347;DHT22;75728;51.856;6.314;2024-02-28T14:50:10;20.50;99.90
42347;DHT22;75728;51.856;6.314;2024-02-28T14:52:42;20.60;99.60
42347;DHT22;75728;51.856;6.314;2024-02-28T14:55:09;20.70;99.70
42347;DHT22;75728;51.856;6.314;2024-02-28T14:57:39;20.30;98.30
42347;DHT22;75728;51.856;6.314;2024-02-28T15:00:06;19.70;98.70
42347;DHT22;75728;51.856;6.314;2024-02-28T15:02:39;19.60;98.50
42347;DHT22;75728;51.856;6.314;2024-02-28T15:05:05;19.50;98.80
42347;DHT22;75728;51.856;6.314;2024-02-28T15:07:32;19.50;98.60
42347;DHT22;75728;51.856;6.314;2024-02-28T15:09:58;19.50;98.70
42347;DHT22;75728;51.856;6.314;2024-02-28T15:12:28;19.50;98.50
42347;DHT22;75728;51.856;6.314;2024-02-28T15:14:54;19.50;98.50
42347;DHT22;75728;51.856;6.314;2024-02-28T15:17:20;19.40;98.60
42347;DHT22;75728;51.856;6.314;2024-02-28T15:19:45;19.40;98.50
42347;DHT22;75728;51.856;6.314;2024-02-28T15:22:11;19.50;98.70
42347;DHT22;75728;51.856;6.314;2024-02-28T15:24:36;19.40;98.40